Time;durP1;ratioP1;P1;durP2;ratioP2;P2;SDS_P1;SDS_P2;PMS_P1;PMS_P2;Temp;Humidity;BMP_temperature;BMP_pressure;BME280_temperature;BME280_humidity;BME280_pressure;Samples;Min_cycle;Max_cycle;Signal;HPM_P1;HPM_P2
2022/10/18 00:01:31;;;;;;;11.43;4.30;;;;;;;;;;5034439;28;20962;-68
2022/10/18 00:03:57;;;;;;;9.00;3.40;;;;;;;;;;5033631;28;20802;-69
2022/10/18 00:06:23;;;;;;;3.90;3.60;;;;;;;;;;5034600;28;20847;-69
2022/10/18 00:08:49;;;;;;;5.37;3.63;;;;;;;;;;5034464;28;20904;-69
2022/10/18 00:11:15;;;;;;;4.10;3.70;;;;;;;;;;5034312;28;20408;-71
2022/10/18 00:13:41;;;;;;;3.50;3.17;;;;;;;;;;5034253;28;20407;-69
2022/10/18 00:16:10;;;;;;;9.60;5.00;;;;;;;;;;5034305;28;20804;-69
2022/10/18 00:18:36;;;;;;;5.13;4.17;;;;;;;;;;5034179;28;20425;-69
2022/10/18 00:21:03;;;;;;;6.13;4.20;;;;;;;;;;5034083;28;20505;-69
2022/10/18 00:23:30;;;;;;;10.37;4.23;;;;;;;;;;5034378;28;20403;-69
2022/10/18 00:26:00;;;;;;;11.33;3.83;;;;;;;;;;5034011;28;20956;-69
2022/10/18 00:28:26;;;;;;;6.93;4.00;;;;;;;;;;5034009;28;20407;-69
2022/10/18 00:30:52;;;;;;;11.30;3.57;;;;;;;;;;5033988;28;20419;-68
2022/10/18 00:33:18;;;;;;;13.13;3.93;;;;;;;;;;5033972;28;20760;-68
2022/10/18 00:35:44;;;;;;;4.80;3.67;;;;;;;;;;5033834;28;20890;-70
2022/10/18 00:38:10;;;;;;;10.17;4.10;;;;;;;;;;5034124;28;20403;-69
2022/10/18 00:40:36;;;;;;;15.97;3.77;;;;;;;;;;5033798;28;20470;-70
2022/10/18 00:43:02;;;;;;;12.80;4.00;;;;;;;;;;5033765;28;20440;-69
2022/10/18 00:45:28;;;;;;;10.10;3.90;;;;;;;;;;5033669;28;20414;-69
2022/10/18 00:48:02;;;;;;;9.83;4.00;;;;;;;;;;5033672;28;20882;-69
2022/10/18 00:50:30;;;;;;;4.33;3.87;;;;;;;;;;5033769;28;20431;-69
2022/10/18 00:52:57;;;;;;;6.90;4.03;;;;;;;;;;5033878;28;20762;-69
2022/10/18 00:55:27;;;;;;;5.40;3.87;;;;;;;;;;5033620;28;20771;-69
2022/10/18 00:57:54;;;;;;;4.50;4.20;;;;;;;;;;5033848;28;20403;-69
2022/10/18 01:00:20;;;;;;;9.20;4.53;;;;;;;;;;5033530;28;21063;-69
2022/10/18 01:02:46;;;;;;;10.67;4.23;;;;;;;;;;5033529;28;20411;-69
2022/10/18 01:05:13;;;;;;;8.03;4.30;;;;;;;;;;5033576;28;20395;-69
2022/10/18 01:07:59;;;;;;;4.30;4.10;;;;;;;;;;5033519;28;20822;-69
2022/10/18 01:10:25;;;;;;;6.87;4.60;;;;;;;;;;5033184;28;20427;-69
2022/10/18 01:12:54;;;;;;;4.03;3.70;;;;;;;;;;5033473;28;20474;-69
2022/10/18 01:15:25;;;;;;;9.27;3.83;;;;;;;;;;5035685;28;20450;-69
2022/10/18 01:18:03;;;;;;;12.90;3.80;;;;;;;;;;5037564;28;20881;-71
2022/10/18 01:20:29;;;;;;;13.73;3.87;;;;;;;;;;5037439;28;20822;-68
2022/10/18 01:22:57;;;;;;;6.80;4.53;;;;;;;;;;5037464;28;20412;-69
2022/10/18 01:25:42;;;;;;;14.13;4.10;;;;;;;;;;5037473;28;20398;-69
2022/10/18 01:28:11;;;;;;;11.80;5.80;;;;;;;;;;5037432;28;20402;-69
2022/10/18 01:31:06;;;;;;;8.30;4.40;;;;;;;;;;5037417;28;20920;-69
2022/10/18 01:33:40;;;;;;;8.53;4.60;;;;;;;;;;5032814;28;20537;-68
2022/10/18 01:36:14;;;;;;;11.83;4.37;;;;;;;;;;5037268;28;20401;-70
2022/10/18 01:38:40;;;;;;;10.23;4.00;;;;;;;;;;5035961;28;20469;-69
2022/10/18 01:41:07;;;;;;;12.73;4.27;;;;;;;;;;5037079;28;20979;-70
2022/10/18 01:43:34;;;;;;;8.97;4.47;;;;;;;;;;5037103;28;20457;-68
2022/10/18 01:46:01;;;;;;;7.30;4.00;;;;;;;;;;5037005;28;20408;-69
2022/10/18 01:48:27;;;;;;;7.47;3.97;;;;;;;;;;5036804;28;20843;-69
2022/10/18 01:50:53;;;;;;;12.37;4.70;;;;;;;;;;5037208;28;20416;-70
2022/10/18 01:53:27;;;;;;;12.67;4.10;;;;;;;;;;5036858;28;20817;-69
2022/10/18 01:56:03;;;;;;;15.30;4.30;;;;;;;;;;5037119;28;20407;-69
2022/10/18 01:58:36;;;;;;;9.73;5.00;;;;;;;;;;5036905;28;20402;-68
2022/10/18 02:01:08;;;;;;;14.47;5.10;;;;;;;;;;5036763;28;20577;-69
2022/10/18 02:03:34;;;;;;;10.63;4.93;;;;;;;;;;5037022;28;20411;-69
2022/10/18 02:06:19;;;;;;;10.13;4.80;;;;;;;;;;5036693;28;20403;-69
2022/10/18 02:09:05;;;;;;;12.83;4.13;;;;;;;;;;5036721;28;20519;-68
2022/10/18 02:11:32;;;;;;;7.80;4.40;;;;;;;;;;5036376;28;20414;-69
2022/10/18 02:14:02;;;;;;;8.70;4.50;;;;;;;;;;5036574;28;20786;-69
2022/10/18 02:16:31;;;;;;;6.83;4.13;;;;;;;;;;5036529;28;20400;-68
2022/10/18 02:19:03;;;;;;;7.43;5.07;;;;;;;;;;5036786;28;20425;-69
2022/10/18 02:21:29;;;;;;;12.33;5.17;;;;;;;;;;5036314;28;20949;-68
2022/10/18 02:23:56;;;;;;;7.53;5.27;;;;;;;;;;5036390;28;20885;-69
2022/10/18 02:26:22;;;;;;;15.13;5.10;;;;;;;;;;5035421;28;20431;-69
2022/10/18 02:28:48;;;;;;;14.87;5.30;;;;;;;;;;5036262;28;20415;-69
2022/10/18 02:31:26;;;;;;;9.90;5.40;;;;;;;;;;5036145;28;20411;-69
2022/10/18 02:34:12;;;;;;;18.10;5.83;;;;;;;;;;5036218;28;20462;-69
2022/10/18 02:36:47;;;;;;;15.23;5.50;;;;;;;;;;5036143;28;20402;-68
2022/10/18 02:39:24;;;;;;;8.27;5.10;;;;;;;;;;5036076;28;20743;-69
2022/10/18 02:41:50;;;;;;;23.87;6.67;;;;;;;;;;5035999;28;20423;-70
2022/10/18 02:44:16;;;;;;;4.87;4.33;;;;;;;;;;5036057;28;20399;-68
2022/10/18 02:46:42;;;;;;;8.97;5.53;;;;;;;;;;5036142;28;20506;-68
2022/10/18 02:49:08;;;;;;;20.03;6.03;;;;;;;;;;5036160;28;20426;-69
2022/10/18 02:51:34;;;;;;;9.93;4.90;;;;;;;;;;5035870;28;20407;-68
2022/10/18 02:54:00;;;;;;;11.87;6.10;;;;;;;;;;5035799;28;20407;-68
2022/10/18 02:56:26;;;;;;;7.03;5.20;;;;;;;;;;5035793;28;20438;-69
2022/10/18 02:58:52;;;;;;;5.93;5.30;;;;;;;;;;5035974;28;20418;-69
2022/10/18 03:01:18;;;;;;;7.30;5.40;;;;;;;;;;5035912;28;20601;-69
2022/10/18 03:03:44;;;;;;;6.47;4.70;;;;;;;;;;5035646;28;20386;-69
2022/10/18 03:06:10;;;;;;;8.80;5.00;;;;;;;;;;5035596;28;20413;-68
2022/10/18 03:08:36;;;;;;;6.57;5.40;;;;;;;;;;5035493;28;20457;-69
2022/10/18 03:11:02;;;;;;;13.53;5.53;;;;;;;;;;5035515;28;20401;-68
2022/10/18 03:13:28;;;;;;;9.07;5.30;;;;;;;;;;5035506;28;20445;-69
2022/10/18 03:15:54;;;;;;;6.83;5.23;;;;;;;;;;5035431;28;20406;-69
2022/10/18 03:18:20;;;;;;;11.37;5.30;;;;;;;;;;5035411;28;20410;-68
2022/10/18 03:20:46;;;;;;;8.43;4.90;;;;;;;;;;5035251;28;20956;-69
2022/10/18 03:23:12;;;;;;;5.80;5.40;;;;;;;;;;5035514;28;20883;-70
2022/10/18 03:25:38;;;;;;;5.50;5.00;;;;;;;;;;5035217;28;20923;-69
2022/10/18 03:28:04;;;;;;;5.40;5.00;;;;;;;;;;5035190;28;20398;-69
2022/10/18 03:30:30;;;;;;;6.97;5.10;;;;;;;;;;5033884;28;20459;-72
2022/10/18 03:32:56;;;;;;;12.70;5.40;;;;;;;;;;5035097;28;20886;-69
2022/10/18 03:35:22;;;;;;;15.57;5.73;;;;;;;;;;5033796;28;20926;-69
2022/10/18 03:37:48;;;;;;;10.97;5.33;;;;;;;;;;5034854;28;20912;-69
2022/10/18 03:40:14;;;;;;;11.73;5.40;;;;;;;;;;5034935;28;20459;-68
2022/10/18 03:42:40;;;;;;;23.47;16.97;;;;;;;;;;5034922;28;20450;-69
2022/10/18 03:45:06;;;;;;;8.97;5.70;;;;;;;;;;5034885;28;20497;-69
2022/10/18 03:47:32;;;;;;;6.83;6.33;;;;;;;;;;5034697;28;20479;-72
2022/10/18 03:49:58;;;;;;;6.17;5.57;;;;;;;;;;5034787;28;20888;-70
2022/10/18 03:52:24;;;;;;;13.93;5.43;;;;;;;;;;5033439;28;20946;-69
2022/10/18 03:54:50;;;;;;;21.13;5.73;;;;;;;;;;5034926;28;20920;-71
2022/10/18 03:57:16;;;;;;;15.03;6.07;;;;;;;;;;5034608;28;20441;-72
2022/10/18 03:59:42;;;;;;;13.10;5.93;;;;;;;;;;5033209;28;20528;-70
2022/10/18 04:02:08;;;;;;;5.60;4.70;;;;;;;;;;5034485;28;20410;-70
2022/10/18 04:04:34;;;;;;;6.93;6.30;;;;;;;;;;5034520;28;21004;-71
2022/10/18 04:07:00;;;;;;;9.63;5.13;;;;;;;;;;5034359;28;20488;-69
2022/10/18 04:09:26;;;;;;;12.00;6.00;;;;;;;;;;5033085;28;20957;-70
2022/10/18 04:11:52;;;;;;;6.20;5.70;;;;;;;;;;5034406;28;20805;-71
2022/10/18 04:14:20;;;;;;;7.83;6.40;;;;;;;;;;5034408;28;20422;-72
2022/10/18 04:16:46;;;;;;;7.90;6.13;;;;;;;;;;5034222;28;20395;-69
2022/10/18 04:19:12;;;;;;;5.60;5.20;;;;;;;;;;5034246;28;20930;-71
2022/10/18 04:21:38;;;;;;;9.93;6.90;;;;;;;;;;5034326;28;20465;-71
2022/10/18 04:24:04;;;;;;;8.73;5.90;;;;;;;;;;5034173;28;20811;-70
2022/10/18 04:26:30;;;;;;;9.77;5.30;;;;;;;;;;5034097;28;20410;-69
2022/10/18 04:28:56;;;;;;;9.13;5.20;;;;;;;;;;5034023;28;20456;-70
2022/10/18 04:31:22;;;;;;;7.30;4.80;;;;;;;;;;5032724;28;20432;-69
2022/10/18 04:33:48;;;;;;;8.07;5.20;;;;;;;;;;5034019;28;20415;-69
2022/10/18 04:36:14;;;;;;;7.33;5.10;;;;;;;;;;5033969;28;20401;-69
2022/10/18 04:38:40;;;;;;;5.87;5.27;;;;;;;;;;5033932;28;20996;-70
2022/10/18 04:41:06;;;;;;;4.57;4.37;;;;;;;;;;5033708;28;20542;-70
2022/10/18 04:43:32;;;;;;;9.00;4.43;;;;;;;;;;5032609;28;20425;-69
2022/10/18 04:45:57;;;;;;;14.10;4.80;;;;;;;;;;5032760;28;20421;-70
2022/10/18 04:48:23;;;;;;;10.10;7.07;;;;;;;;;;5033688;28;20548;-69
2022/10/18 04:50:50;;;;;;;13.80;7.77;;;;;;;;;;5033245;28;20411;-70
2022/10/18 04:53:17;;;;;;;4.70;3.90;;;;;;;;;;5033650;28;20415;-71
2022/10/18 04:55:48;;;;;;;4.37;4.03;;;;;;;;;;5033627;28;20820;-68
2022/10/18 04:58:15;;;;;;;17.73;4.40;;;;;;;;;;5033606;28;20411;-69
2022/10/18 05:00:41;;;;;;;10.13;4.10;;;;;;;;;;5033472;28;20474;-69
2022/10/18 05:03:07;;;;;;;13.10;4.00;;;;;;;;;;5033818;28;20411;-69
2022/10/18 05:05:33;;;;;;;6.43;3.90;;;;;;;;;;5033574;28;20398;-69
2022/10/18 05:07:59;;;;;;;3.60;3.40;;;;;;;;;;5033617;28;20408;-69
2022/10/18 05:10:25;;;;;;;3.47;3.37;;;;;;;;;;5033568;28;20405;-68
2022/10/18 05:12:51;;;;;;;8.53;3.80;;;;;;;;;;5033692;28;20404;-69
2022/10/18 05:15:17;;;;;;;8.00;6.77;;;;;;;;;;5033544;28;20828;-69
2022/10/18 05:17:43;;;;;;;10.30;3.80;;;;;;;;;;5033443;28;20451;-69
2022/10/18 05:20:09;;;;;;;4.23;3.80;;;;;;;;;;5033352;28;20463;-74
2022/10/18 05:22:35;;;;;;;4.63;4.23;;;;;;;;;;5033612;28;20404;-71
2022/10/18 05:25:01;;;;;;;4.10;3.80;;;;;;;;;;5033441;28;20810;-71
2022/10/18 05:27:28;;;;;;;7.30;3.60;;;;;;;;;;5033403;28;20420;-73
2022/10/18 05:29:53;;;;;;;5.00;3.70;;;;;;;;;;5033486;28;20437;-72
2022/10/18 05:32:20;;;;;;;8.40;3.33;;;;;;;;;;5033354;28;20875;-72
2022/10/18 05:34:45;;;;;;;5.23;3.70;;;;;;;;;;5033479;28;20505;-71
2022/10/18 05:37:12;;;;;;;8.50;3.57;;;;;;;;;;5033505;28;20442;-71
2022/10/18 05:39:38;;;;;;;5.40;3.40;;;;;;;;;;5033378;28;20401;-71
2022/10/18 05:42:04;;;;;;;7.00;3.50;;;;;;;;;;5033146;28;20420;-71
2022/10/18 05:44:31;;;;;;;5.83;3.37;;;;;;;;;;5033142;28;20394;-72
2022/10/18 05:46:56;;;;;;;4.57;2.97;;;;;;;;;;5032957;28;20413;-71
2022/10/18 05:49:22;;;;;;;3.67;3.13;;;;;;;;;;5033103;28;20401;-72
2022/10/18 05:51:48;;;;;;;6.97;3.20;;;;;;;;;;5033383;28;20409;-71
2022/10/18 05:54:15;;;;;;;3.47;3.27;;;;;;;;;;5033008;28;20429;-70
2022/10/18 05:56:41;;;;;;;3.50;3.30;;;;;;;;;;5033268;28;20404;-71
2022/10/18 05:59:09;;;;;;;4.47;4.03;;;;;;;;;;5033010;28;20552;-72
2022/10/18 06:01:35;;;;;;;10.60;3.67;;;;;;;;;;5033822;28;20469;-70
2022/10/18 06:04:01;;;;;;;3.87;3.60;;;;;;;;;;5036897;28;20461;-75
2022/10/18 06:06:27;;;;;;;3.60;3.40;;;;;;;;;;5036707;28;20505;-73
2022/10/18 06:08:53;;;;;;;9.37;3.67;;;;;;;;;;5036706;28;20401;-70
2022/10/18 06:11:19;;;;;;;4.27;3.73;;;;;;;;;;5036583;28;20480;-70
2022/10/18 06:13:49;;;;;;;11.10;3.57;;;;;;;;;;5036592;28;20873;-71
2022/10/18 06:16:16;;;;;;;4.03;3.53;;;;;;;;;;5036512;28;20411;-72
2022/10/18 06:18:42;;;;;;;11.17;3.60;;;;;;;;;;5036423;28;20959;-71
2022/10/18 06:21:09;;;;;;;9.57;4.43;;;;;;;;;;5036374;28;20465;-72
2022/10/18 06:23:35;;;;;;;5.50;3.50;;;;;;;;;;5036612;28;20826;-70
2022/10/18 06:26:01;;;;;;;3.40;3.17;;;;;;;;;;5036627;28;20410;-72
2022/10/18 06:28:28;;;;;;;3.83;3.53;;;;;;;;;;5034999;28;20827;-69
2022/10/18 06:30:54;;;;;;;17.57;3.53;;;;;;;;;;5036302;28;20416;-71
2022/10/18 06:33:20;;;;;;;3.77;3.40;;;;;;;;;;5036514;28;20504;-69
2022/10/18 06:35:59;;;;;;;3.87;3.67;;;;;;;;;;5036337;28;20422;-69
2022/10/18 06:38:25;;;;;;;5.73;3.37;;;;;;;;;;5036059;28;20410;-71
2022/10/18 06:40:51;;;;;;;3.90;3.60;;;;;;;;;;5036160;28;20500;-71
2022/10/18 06:43:17;;;;;;;4.67;3.43;;;;;;;;;;5036270;28;20468;-72
2022/10/18 06:45:43;;;;;;;3.40;3.20;;;;;;;;;;5035912;28;20406;-72
2022/10/18 06:48:09;;;;;;;3.77;3.57;;;;;;;;;;5035820;28;20516;-71
2022/10/18 06:50:35;;;;;;;4.80;3.20;;;;;;;;;;5035954;28;20415;-72
2022/10/18 06:53:03;;;;;;;3.70;3.60;;;;;;;;;;5035866;28;20393;-71
2022/10/18 06:55:29;;;;;;;5.97;3.20;;;;;;;;;;5035860;28;20405;-70
2022/10/18 06:57:55;;;;;;;8.80;3.10;;;;;;;;;;5035809;28;20405;-70
2022/10/18 07:00:21;;;;;;;6.10;3.57;;;;;;;;;;5035595;28;20479;-70
2022/10/18 07:02:47;;;;;;;5.40;3.50;;;;;;;;;;5035699;28;20420;-71
2022/10/18 07:05:13;;;;;;;5.07;3.90;;;;;;;;;;5035557;28;20402;-70
2022/10/18 07:07:39;;;;;;;3.67;3.37;;;;;;;;;;5034329;28;20421;-69
2022/10/18 07:10:05;;;;;;;7.63;3.20;;;;;;;;;;5035537;28;20775;-69
2022/10/18 07:12:32;;;;;;;4.67;3.57;;;;;;;;;;5035135;28;20451;-70
2022/10/18 07:14:58;;;;;;;3.83;3.53;;;;;;;;;;5035323;28;20437;-71
2022/10/18 07:17:24;;;;;;;6.80;4.20;;;;;;;;;;5035394;28;20408;-70
2022/10/18 07:19:49;;;;;;;4.10;3.20;;;;;;;;;;5035226;28;20494;-71
2022/10/18 07:22:15;;;;;;;5.77;4.07;;;;;;;;;;5035180;28;20415;-71
2022/10/18 07:24:41;;;;;;;4.13;3.17;;;;;;;;;;5035141;28;20400;-70
2022/10/18 07:27:07;;;;;;;3.63;3.40;;;;;;;;;;5035206;28;20407;-70
2022/10/18 07:29:36;;;;;;;3.37;3.17;;;;;;;;;;5034946;28;20446;-69
2022/10/18 07:32:02;;;;;;;3.97;3.40;;;;;;;;;;5035097;28;20868;-71
2022/10/18 07:34:28;;;;;;;9.13;3.87;;;;;;;;;;5035119;28;20404;-70
2022/10/18 07:36:54;;;;;;;11.33;3.43;;;;;;;;;;5034975;28;20437;-71
2022/10/18 07:39:20;;;;;;;3.93;3.73;;;;;;;;;;5034983;28;20389;-70
2022/10/18 07:41:46;;;;;;;4.10;3.80;;;;;;;;;;5034757;28;20468;-72
2022/10/18 07:44:12;;;;;;;3.80;3.50;;;;;;;;;;5034829;28;20860;-70
2022/10/18 07:46:38;;;;;;;6.10;3.23;;;;;;;;;;5034820;28;20412;-70
2022/10/18 07:49:04;;;;;;;4.30;3.40;;;;;;;;;;5034554;28;20458;-70
2022/10/18 07:51:31;;;;;;;4.50;3.40;;;;;;;;;;5034663;28;20417;-69
2022/10/18 07:53:58;;;;;;;9.10;3.80;;;;;;;;;;5034694;28;20407;-70
2022/10/18 07:56:24;;;;;;;3.80;3.60;;;;;;;;;;5034897;28;20420;-69
2022/10/18 07:58:51;;;;;;;6.23;3.17;;;;;;;;;;5034659;28;20422;-70
2022/10/18 08:01:17;;;;;;;3.00;2.90;;;;;;;;;;5034702;28;20598;-70
2022/10/18 08:03:43;;;;;;;5.93;3.40;;;;;;;;;;5034489;28;20398;-69
2022/10/18 08:06:10;;;;;;;6.90;3.37;;;;;;;;;;5034423;28;20405;-70
2022/10/18 08:08:37;;;;;;;7.00;3.30;;;;;;;;;;5034399;28;20417;-70
2022/10/18 08:11:04;;;;;;;11.77;3.17;;;;;;;;;;5034600;28;20406;-70
2022/10/18 08:13:30;;;;;;;2.57;2.47;;;;;;;;;;5034393;28;20430;-70
2022/10/18 08:16:02;;;;;;;10.00;2.87;;;;;;;;;;5034313;28;20399;-71
2022/10/18 08:18:28;;;;;;;4.13;3.27;;;;;;;;;;5034248;28;20402;-70
2022/10/18 08:20:53;;;;;;;5.03;3.07;;;;;;;;;;5034088;28;20475;-70
2022/10/18 08:23:19;;;;;;;4.10;3.67;;;;;;;;;;5034176;28;20407;-71
2022/10/18 08:25:45;;;;;;;3.87;3.60;;;;;;;;;;5033365;28;20421;-70
2022/10/18 08:28:12;;;;;;;5.30;3.40;;;;;;;;;;5034077;28;20440;-70
2022/10/18 08:30:38;;;;;;;3.40;3.10;;;;;;;;;;5033982;28;20405;-69
2022/10/18 08:33:04;;;;;;;4.50;3.00;;;;;;;;;;5032717;28;20475;-70
2022/10/18 08:35:31;;;;;;;4.00;3.63;;;;;;;;;;5033918;28;20424;-70
2022/10/18 08:37:58;;;;;;;5.13;3.30;;;;;;;;;;5032883;28;20849;-70
2022/10/18 08:40:26;;;;;;;4.50;3.33;;;;;;;;;;5034087;28;20531;-69
2022/10/18 08:43:02;;;;;;;10.00;4.27;;;;;;;;;;5033902;28;20404;-70
2022/10/18 08:45:29;;;;;;;6.57;2.87;;;;;;;;;;5034053;28;20418;-70
2022/10/18 08:47:56;;;;;;;3.23;3.03;;;;;;;;;;5033481;28;20602;-71
2022/10/18 08:50:25;;;;;;;7.30;3.30;;;;;;;;;;5033788;28;20784;-69
2022/10/18 08:52:57;;;;;;;6.10;2.63;;;;;;;;;;5033820;28;20399;-70
2022/10/18 08:55:39;;;;;;;5.07;3.10;;;;;;;;;;5033680;28;20404;-70
2022/10/18 08:58:25;;;;;;;2.70;2.50;;;;;;;;;;5033596;28;20531;-71
2022/10/18 09:01:07;;;;;;;5.00;2.67;;;;;;;;;;5033772;28;20474;-70
2022/10/18 09:03:45;;;;;;;5.67;2.53;;;;;;;;;;5033579;28;20449;-71
2022/10/18 09:06:34;;;;;;;5.63;3.07;;;;;;;;;;5033530;28;20423;-72
2022/10/18 09:09:15;;;;;;;3.07;2.70;;;;;;;;;;5013851;28;20420;-69
2022/10/18 09:11:44;;;;;;;6.90;2.47;;;;;;;;;;5033287;28;20960;-70
2022/10/18 09:14:19;;;;;;;3.00;2.73;;;;;;;;;;5033328;28;20543;-69
2022/10/18 09:16:55;;;;;;;3.00;2.90;;;;;;;;;;5033399;28;20410;-68
2022/10/18 09:19:34;;;;;;;9.30;3.00;;;;;;;;;;5033609;28;20471;-68
2022/10/18 09:22:05;;;;;;;6.90;3.03;;;;;;;;;;5033645;28;20847;-68
2022/10/18 09:24:39;;;;;;;10.10;3.20;;;;;;;;;;5033332;28;20882;-69
2022/10/18 09:27:11;;;;;;;3.20;2.70;;;;;;;;;;5033286;28;20406;-68
2022/10/18 09:29:37;;;;;;;3.70;3.27;;;;;;;;;;5033284;28;20404;-68
2022/10/18 09:32:21;;;;;;;3.30;3.20;;;;;;;;;;5033266;28;20401;-70
2022/10/18 09:34:53;;;;;;;4.97;2.90;;;;;;;;;;5033359;28;20183;-70
2022/10/18 09:37:20;;;;;;;3.10;2.30;;;;;;;;;;5037002;28;20419;-69
2022/10/18 09:39:47;;;;;;;2.57;2.47;;;;;;;;;;5037161;28;20431;-67
2022/10/18 09:42:29;;;;;;;5.30;2.43;;;;;;;;;;5037171;28;20404;-70
2022/10/18 09:45:13;;;;;;;2.87;2.77;;;;;;;;;;5037134;28;20392;-69
2022/10/18 09:47:42;;;;;;;4.20;3.23;;;;;;;;;;5036890;28;20553;-69
2022/10/18 09:50:17;;;;;;;2.77;2.53;;;;;;;;;;5037034;28;20396;-70
2022/10/18 09:52:49;;;;;;;7.50;2.73;;;;;;;;;;5036965;28;20395;-69
2022/10/18 09:55:18;;;;;;;9.97;3.30;;;;;;;;;;5036937;28;20396;-69
2022/10/18 09:57:47;;;;;;;5.30;2.90;;;;;;;;;;5037158;28;20404;-69
2022/10/18 10:00:18;;;;;;;6.93;3.43;;;;;;;;;;5036750;28;21000;-68
2022/10/18 10:02:44;;;;;;;6.43;2.63;;;;;;;;;;5036736;28;20407;-69
2022/10/18 10:05:13;;;;;;;3.43;2.80;;;;;;;;;;5036723;28;20429;-69
2022/10/18 10:07:46;;;;;;;6.40;3.30;;;;;;;;;;5036640;28;20408;-68
2022/10/18 10:10:15;;;;;;;7.33;3.37;;;;;;;;;;5036932;28;20467;-69
2022/10/18 10:12:43;;;;;;;7.40;3.60;;;;;;;;;;5036631;28;20404;-69
2022/10/18 10:15:26;;;;;;;5.30;3.63;;;;;;;;;;5036627;28;20946;-69
2022/10/18 10:18:18;;;;;;;6.40;3.60;;;;;;;;;;5035579;28;20489;-69
2022/10/18 10:20:54;;;;;;;3.67;3.37;;;;;;;;;;5035154;28;20825;-69
2022/10/18 10:23:22;;;;;;;8.20;3.60;;;;;;;;;;5036717;28;20760;-70
2022/10/18 10:25:51;;;;;;;5.90;3.30;;;;;;;;;;5036446;28;20402;-69
2022/10/18 10:28:19;;;;;;;4.00;3.30;;;;;;;;;;5036304;28;20407;-68
2022/10/18 10:30:45;;;;;;;6.10;3.10;;;;;;;;;;5036562;28;20415;-68
2022/10/18 10:33:31;;;;;;;3.07;2.87;;;;;;;;;;5036238;28;20404;-69
2022/10/18 10:35:58;;;;;;;10.07;3.47;;;;;;;;;;5036119;28;20404;-69
2022/10/18 10:38:25;;;;;;;4.10;2.70;;;;;;;;;;5036176;28;20435;-70
2022/10/18 10:40:51;;;;;;;3.00;2.80;;;;;;;;;;5036183;28;20528;-70
2022/10/18 10:43:25;;;;;;;5.43;2.80;;;;;;;;;;5036117;28;20404;-71
2022/10/18 10:46:22;;;;;;;5.53;2.80;;;;;;;;;;5036026;28;20408;-69
2022/10/18 10:48:52;;;;;;;3.87;2.80;;;;;;;;;;5030719;28;20539;-72
2022/10/18 10:51:28;;;;;;;4.90;3.00;;;;;;;;;;5035975;28;20872;-71
2022/10/18 10:53:56;;;;;;;2.73;2.40;;;;;;;;;;5036087;28;20410;-69
2022/10/18 10:56:22;;;;;;;7.50;3.27;;;;;;;;;;5035878;28;20509;-70
2022/10/18 10:58:49;;;;;;;3.30;3.00;;;;;;;;;;5035834;28;20888;-70
2022/10/18 11:01:29;;;;;;;3.47;3.00;;;;;;;;;;5035594;28;20804;-70
2022/10/18 11:03:57;;;;;;;4.40;2.53;;;;;;;;;;5035618;28;20462;-70
2022/10/18 11:06:35;;;;;;;8.73;2.73;;;;;;;;;;5035588;28;20496;-70
2022/10/18 11:09:03;;;;;;;5.77;2.60;;;;;;;;;;5035644;28;20408;-70
2022/10/18 11:11:35;;;;;;;10.43;2.50;;;;;;;;;;5035380;28;20458;-69
2022/10/18 11:14:08;;;;;;;3.87;3.17;;;;;;;;;;5035506;28;20503;-69
2022/10/18 11:16:53;;;;;;;3.23;2.83;;;;;;;;;;5035394;28;20404;-71
2022/10/18 11:19:29;;;;;;;3.30;2.80;;;;;;;;;;5035400;28;20446;-70
2022/10/18 11:21:55;;;;;;;7.47;3.00;;;;;;;;;;5035340;28;20463;-71
2022/10/18 11:24:21;;;;;;;6.60;2.60;;;;;;;;;;5035257;28;20411;-69
2022/10/18 11:26:50;;;;;;;5.20;3.53;;;;;;;;;;5035224;28;20867;-69
2022/10/18 11:29:16;;;;;;;7.93;3.13;;;;;;;;;;5035285;28;20864;-69
2022/10/18 11:31:53;;;;;;;7.47;3.00;;;;;;;;;;5035165;28;20411;-68
2022/10/18 11:34:19;;;;;;;5.93;3.23;;;;;;;;;;5035507;28;20177;-67
2022/10/18 11:37:06;;;;;;;3.00;2.80;;;;;;;;;;5035045;28;20412;-68
2022/10/18 11:39:51;;;;;;;3.20;2.97;;;;;;;;;;5035294;28;20267;-68
2022/10/18 11:42:32;;;;;;;8.07;2.40;;;;;;;;;;5034941;28;20925;-70
2022/10/18 11:45:27;;;;;;;6.43;2.87;;;;;;;;;;5034929;28;20503;-70
2022/10/18 11:47:59;;;;;;;4.80;2.40;;;;;;;;;;5034661;28;20491;-70
2022/10/18 11:50:39;;;;;;;5.93;2.50;;;;;;;;;;5034866;28;20506;-70
2022/10/18 11:53:11;;;;;;;8.17;2.70;;;;;;;;;;5034697;28;20408;-70
2022/10/18 11:55:42;;;;;;;11.00;3.27;;;;;;;;;;5034659;28;20419;-69
2022/10/18 11:58:27;;;;;;;4.10;2.70;;;;;;;;;;5034717;28;20404;-70
2022/10/18 12:00:56;;;;;;;2.97;2.87;;;;;;;;;;5033866;28;20472;-70
2022/10/18 12:03:39;;;;;;;6.47;2.87;;;;;;;;;;5034539;28;20483;-69
2022/10/18 12:06:09;;;;;;;4.30;2.70;;;;;;;;;;5034437;28;20817;-71
2022/10/18 12:08:41;;;;;;;4.83;2.77;;;;;;;;;;5034559;28;20443;-69
2022/10/18 12:11:26;;;;;;;3.13;2.93;;;;;;;;;;5034371;28;20419;-69
2022/10/18 12:13:56;;;;;;;4.20;2.97;;;;;;;;;;5034595;28;20412;-69
2022/10/18 12:16:23;;;;;;;5.17;2.93;;;;;;;;;;5034271;28;20421;-70
2022/10/18 12:18:54;;;;;;;2.87;2.60;;;;;;;;;;5032969;28;20412;-70
2022/10/18 12:21:21;;;;;;;11.87;3.50;;;;;;;;;;5034176;28;20832;-70
2022/10/18 12:23:53;;;;;;;2.73;2.53;;;;;;;;;;5034295;28;20415;-72
2022/10/18 12:26:19;;;;;;;2.90;2.70;;;;;;;;;;5034239;28;20400;-69
2022/10/18 12:29:05;;;;;;;4.87;2.93;;;;;;;;;;5034147;28;20458;-69
2022/10/18 12:31:35;;;;;;;2.77;2.57;;;;;;;;;;5033991;28;20410;-68
2022/10/18 12:34:09;;;;;;;4.40;2.50;;;;;;;;;;5034083;28;20403;-68
2022/10/18 12:36:45;;;;;;;8.43;2.67;;;;;;;;;;5033926;28;20487;-69
2022/10/18 12:39:20;;;;;;;8.00;2.67;;;;;;;;;;5033941;28;20407;-70
2022/10/18 12:41:47;;;;;;;5.03;2.93;;;;;;;;;;5033982;28;20548;-70
2022/10/18 12:44:16;;;;;;;8.40;2.90;;;;;;;;;;5034078;28;20456;-69
2022/10/18 12:46:47;;;;;;;2.80;2.40;;;;;;;;;;5034097;28;20819;-70
2022/10/18 12:49:16;;;;;;;2.97;2.77;;;;;;;;;;5033794;28;20448;-70
2022/10/18 12:51:50;;;;;;;9.43;2.57;;;;;;;;;;5033734;28;20776;-70
2022/10/18 12:54:17;;;;;;;8.97;3.27;;;;;;;;;;5033718;28;20438;-69
2022/10/18 12:56:45;;;;;;;4.83;2.40;;;;;;;;;;5033705;28;20408;-70
2022/10/18 12:59:14;;;;;;;3.33;2.70;;;;;;;;;;5033662;28;20419;-70
2022/10/18 13:01:52;;;;;;;17.90;3.90;;;;;;;;;;5033608;28;20980;-70
2022/10/18 13:04:27;;;;;;;2.73;2.63;;;;;;;;;;5033678;28;20407;-69
2022/10/18 13:06:56;;;;;;;12.47;3.07;;;;;;;;;;5033499;28;20963;-70
2022/10/18 13:09:24;;;;;;;4.33;2.70;;;;;;;;;;5033420;28;20396;-69
2022/10/18 13:11:51;;;;;;;3.50;2.60;;;;;;;;;;5033197;28;20498;-69
2022/10/18 13:14:28;;;;;;;3.80;2.63;;;;;;;;;;5033478;28;20867;-69
2022/10/18 13:16:58;;;;;;;6.83;2.73;;;;;;;;;;5033557;28;20495;-68
2022/10/18 13:19:34;;;;;;;2.70;2.60;;;;;;;;;;5033416;28;20410;-66
2022/10/18 13:22:23;;;;;;;6.07;2.70;;;;;;;;;;5033692;28;20467;-68
2022/10/18 13:24:59;;;;;;;3.13;2.30;;;;;;;;;;5033440;28;20939;-70
2022/10/18 13:27:44;;;;;;;6.90;2.50;;;;;;;;;;5033340;28;20415;-69
2022/10/18 13:30:19;;;;;;;10.60;2.77;;;;;;;;;;5033350;28;20417;-71
2022/10/18 13:32:45;;;;;;;9.03;2.93;;;;;;;;;;5033341;28;20407;-68
2022/10/18 13:35:30;;;;;;;11.70;3.70;;;;;;;;;;5033299;28;20498;-69
2022/10/18 13:37:59;;;;;;;6.53;4.37;;;;;;;;;;5033516;28;20176;-68
2022/10/18 13:40:25;;;;;;;3.53;3.17;;;;;;;;;;5033135;28;20456;-68
2022/10/18 13:42:51;;;;;;;4.30;3.10;;;;;;;;;;5033171;28;20902;-69
2022/10/18 13:45:32;;;;;;;3.97;2.93;;;;;;;;;;5033246;28;20403;-68
2022/10/18 13:48:16;;;;;;;7.93;2.73;;;;;;;;;;5031774;28;20569;-67
2022/10/18 13:50:44;;;;;;;3.60;2.50;;;;;;;;;;5033154;28;20428;-68
2022/10/18 13:53:16;;;;;;;4.87;2.47;;;;;;;;;;5033027;28;20419;-69
2022/10/18 13:55:47;;;;;;;6.73;3.00;;;;;;;;;;5033130;28;20404;-68
2022/10/18 13:58:13;;;;;;;6.87;3.07;;;;;;;;;;5033125;28;20407;-71
2022/10/18 14:00:57;;;;;;;4.53;2.80;;;;;;;;;;5033099;28;20474;-69
2022/10/18 14:03:29;;;;;;;3.03;2.30;;;;;;;;;;5033069;28;20173;-70
2022/10/18 14:06:05;;;;;;;5.50;2.77;;;;;;;;;;5032893;28;20402;-71
2022/10/18 14:08:31;;;;;;;8.63;3.47;;;;;;;;;;5033061;28;20399;-67
2022/10/18 14:10:57;;;;;;;3.70;3.37;;;;;;;;;;5033257;28;20485;-71
2022/10/18 14:13:25;;;;;;;3.90;3.07;;;;;;;;;;5032940;28;20227;-70
2022/10/18 14:15:52;;;;;;;5.27;3.20;;;;;;;;;;5032991;28;20658;-70
2022/10/18 14:18:30;;;;;;;7.50;3.03;;;;;;;;;;5032896;28;20407;-69
2022/10/18 14:20:58;;;;;;;8.03;3.80;;;;;;;;;;5032756;28;20470;-70
2022/10/18 14:23:33;;;;;;;7.70;6.97;;;;;;;;;;5034889;28;20490;-71
2022/10/18 14:26:13;;;;;;;7.37;5.97;;;;;;;;;;5036389;28;20442;-70
2022/10/18 14:28:38;;;;;;;8.53;3.30;;;;;;;;;;5036315;28;20901;-70
2022/10/18 14:31:06;;;;;;;2.80;2.60;;;;;;;;;;5036326;28;20411;-71
2022/10/18 14:33:40;;;;;;;6.90;3.20;;;;;;;;;;5036194;28;20401;-72
2022/10/18 14:36:12;;;;;;;3.00;2.80;;;;;;;;;;5036284;28;20409;-71
2022/10/18 14:38:45;;;;;;;4.83;2.90;;;;;;;;;;5036295;28;20396;-70
2022/10/18 14:41:15;;;;;;;6.70;2.87;;;;;;;;;;5035976;28;20467;-70
2022/10/18 14:43:41;;;;;;;3.13;2.83;;;;;;;;;;5036027;28;20439;-69
2022/10/18 14:46:08;;;;;;;8.23;2.90;;;;;;;;;;5036271;28;20434;-69
2022/10/18 14:48:34;;;;;;;7.60;3.07;;;;;;;;;;5035792;28;20590;-70
2022/10/18 14:51:09;;;;;;;3.10;2.80;;;;;;;;;;5035898;28;20514;-71
2022/10/18 14:53:37;;;;;;;3.13;2.37;;;;;;;;;;5035961;28;20406;-71
2022/10/18 14:56:04;;;;;;;3.80;3.40;;;;;;;;;;5035825;28;20430;-71